Time;durP1;ratioP1;P1;durP2;ratioP2;P2;SDS_P1;SDS_P2;PMS_P1;PMS_P2;Temp;Humidity;BMP_temperature;BMP_pressure;BME280_temperature;BME280_humidity;BME280_pressure;Samples;Min_cycle;Max_cycle;Signal;HPM_P1;HPM_P2
2022/02/28 00:02:09;;;;;;;;;;;3.50;99.90;;;;;;5050259;28;19913;-81
2022/02/28 00:04:34;;;;;;;;;;;3.50;99.90;;;;;;5038149;28;19920;-82
2022/02/28 00:07:00;;;;;;;;;;;3.40;99.90;;;;;;5056230;28;20345;-82
2022/02/28 00:09:25;;;;;;;;;;;3.40;99.90;;;;;;5036392;28;19971;-82
2022/02/28 00:11:50;;;;;;;;;;;3.40;99.90;;;;;;5051568;28;19920;-81
2022/02/28 00:14:16;;;;;;;;;;;3.40;99.90;;;;;;5050777;28;19914;-81
2022/02/28 00:16:41;;;;;;;;;;;3.40;99.90;;;;;;5038135;28;19913;-81
2022/02/28 00:19:07;;;;;;;;;;;3.40;99.90;;;;;;5050685;28;20042;-82
2022/02/28 00:21:33;;;;;;;;;;;3.30;99.90;;;;;;5036180;28;19913;-81
2022/02/28 00:23:59;;;;;;;;;;;3.30;99.90;;;;;;5034068;28;20029;-81
2022/02/28 00:26:24;;;;;;;;;;;3.30;99.90;;;;;;5036156;28;19924;-81
2022/02/28 00:28:50;;;;;;;;;;;3.20;99.90;;;;;;5070073;28;19932;-82
2022/02/28 00:31:15;;;;;;;;;;;3.20;99.90;;;;;;5039468;28;19920;-81
2022/02/28 00:33:41;;;;;;;;;;;3.20;99.90;;;;;;5050597;28;20340;-82
2022/02/28 00:36:06;;;;;;;;;;;3.20;99.90;;;;;;5051232;28;19920;-82
2022/02/28 00:38:32;;;;;;;;;;;3.10;99.90;;;;;;5053812;28;19912;-82
2022/02/28 00:40:58;;;;;;;;;;;3.10;99.90;;;;;;5069388;28;19919;-81
2022/02/28 00:43:24;;;;;;;;;;;3.10;99.90;;;;;;5053009;28;19917;-81
2022/02/28 00:45:49;;;;;;;;;;;3.00;99.90;;;;;;5068684;28;19919;-81
2022/02/28 00:48:15;;;;;;;;;;;3.00;99.90;;;;;;5050332;28;20042;-81
2022/02/28 00:50:40;;;;;;;;;;;3.00;99.90;;;;;;5052233;28;19916;-81
2022/02/28 00:53:06;;;;;;;;;;;2.90;99.90;;;;;;5047922;28;19939;-82
2022/02/28 00:55:31;;;;;;;;;;;2.80;99.90;;;;;;5053708;28;19917;-81
2022/02/28 00:57:57;;;;;;;;;;;2.80;99.90;;;;;;5068889;28;20389;-81
2022/02/28 01:00:22;;;;;;;;;;;2.70;99.90;;;;;;5032120;28;19996;-81
2022/02/28 01:02:48;;;;;;;;;;;2.70;99.90;;;;;;5051550;28;19935;-81
2022/02/28 01:05:15;;;;;;;;;;;2.60;99.90;;;;;;5035652;28;19936;-81
2022/02/28 01:07:41;;;;;;;;;;;2.60;99.90;;;;;;5069792;28;19916;-82
2022/02/28 01:10:08;;;;;;;;;;;2.50;99.90;;;;;;5033502;28;20447;-82
2022/02/28 01:12:33;;;;;;;;;;;2.50;99.90;;;;;;5035454;28;19913;-82
2022/02/28 01:14:59;;;;;;;;;;;2.40;99.90;;;;;;5049894;28;19974;-81
2022/02/28 01:17:24;;;;;;;;;;;2.40;99.90;;;;;;5032111;28;19990;-81
2022/02/28 01:19:50;;;;;;;;;;;2.40;99.90;;;;;;5052568;28;20399;-82
2022/02/28 01:22:16;;;;;;;;;;;2.30;99.90;;;;;;5052018;28;19966;-81
2022/02/28 01:24:41;;;;;;;;;;;2.30;99.90;;;;;;5038985;28;19920;-81
2022/02/28 01:27:07;;;;;;;;;;;2.30;99.90;;;;;;5040526;28;20311;-82
2022/02/28 01:29:32;;;;;;;;;;;2.30;99.90;;;;;;5052667;28;20293;-82
2022/02/28 01:31:58;;;;;;;;;;;2.30;99.90;;;;;;5036260;28;20472;-81
2022/02/28 01:34:23;;;;;;;;;;;2.30;99.90;;;;;;5049226;28;19913;-81
2022/02/28 01:36:49;;;;;;;;;;;2.30;99.90;;;;;;5074031;28;20346;-82
2022/02/28 01:39:15;;;;;;;;;;;2.30;99.90;;;;;;5051542;28;19913;-82
2022/02/28 01:41:40;;;;;;;;;;;2.20;99.90;;;;;;5044884;28;19974;-81
2022/02/28 01:44:06;;;;;;;;;;;2.20;99.90;;;;;;5051972;28;20059;-82
2022/02/28 01:46:32;;;;;;;;;;;2.30;99.90;;;;;;5059085;28;20335;-82
2022/02/28 01:48:58;;;;;;;;;;;2.20;99.90;;;;;;5051535;28;19916;-82
2022/02/28 01:51:23;;;;;;;;;;;2.20;99.90;;;;;;5055683;28;20334;-82
2022/02/28 01:53:49;;;;;;;;;;;2.20;99.90;;;;;;5036027;28;19976;-82
2022/02/28 01:56:14;;;;;;;;;;;2.20;99.90;;;;;;5038329;28;19920;-82
2022/02/28 01:58:40;;;;;;;;;;;2.20;99.90;;;;;;5033583;28;20342;-82
2022/02/28 02:01:06;;;;;;;;;;;2.20;99.90;;;;;;5070915;28;20003;-82
2022/02/28 02:03:32;;;;;;;;;;;2.10;99.90;;;;;;5050419;28;19952;-82
2022/02/28 02:05:58;;;;;;;;;;;2.10;99.90;;;;;;5051578;28;19924;-82
2022/02/28 02:08:23;;;;;;;;;;;2.10;99.90;;;;;;5050789;28;19916;-82
2022/02/28 02:10:49;;;;;;;;;;;2.10;99.90;;;;;;5036256;28;19912;-82
2022/02/28 02:13:15;;;;;;;;;;;2.10;99.90;;;;;;5051427;28;19956;-83
2022/02/28 02:15:41;;;;;;;;;;;2.10;99.90;;;;;;5051379;28;19955;-82
2022/02/28 02:18:07;;;;;;;;;;;2.10;99.90;;;;;;5070755;28;19923;-82
2022/02/28 02:20:34;;;;;;;;;;;2.10;99.90;;;;;;5038008;28;19920;-81
2022/02/28 02:23:04;;;;;;;;;;;2.00;99.90;;;;;;5049284;28;19924;-81
2022/02/28 02:25:30;;;;;;;;;;;2.00;99.90;;;;;;5037822;28;19921;-81
2022/02/28 02:27:55;;;;;;;;;;;2.00;99.90;;;;;;5054389;28;19927;-82
2022/02/28 02:30:21;;;;;;;;;;;2.00;99.90;;;;;;5036302;28;19917;-81
2022/02/28 02:32:47;;;;;;;;;;;2.00;99.90;;;;;;5035205;28;19932;-82
2022/02/28 02:35:12;;;;;;;;;;;2.00;99.90;;;;;;5054670;28;19921;-83
2022/02/28 02:37:38;;;;;;;;;;;2.00;99.90;;;;;;5065638;28;19913;-82
2022/02/28 02:40:04;;;;;;;;;;;1.90;99.90;;;;;;5041779;28;19920;-81
2022/02/28 02:42:29;;;;;;;;;;;1.90;99.90;;;;;;5069098;28;20735;-82
2022/02/28 02:44:55;;;;;;;;;;;1.90;99.90;;;;;;5069378;28;19913;-82
2022/02/28 02:47:20;;;;;;;;;;;1.90;99.90;;;;;;5054550;28;19967;-82
2022/02/28 02:49:46;;;;;;;;;;;1.90;99.90;;;;;;5055115;28;19920;-82
2022/02/28 02:52:11;;;;;;;;;;;1.90;99.90;;;;;;5035987;28;20440;-82
2022/02/28 02:54:37;;;;;;;;;;;2.00;99.90;;;;;;5040307;28;19990;-81
2022/02/28 02:57:02;;;;;;;;;;;2.00;99.90;;;;;;5055056;28;19913;-81
2022/02/28 02:59:28;;;;;;;;;;;2.00;99.90;;;;;;5040926;28;19963;-81
2022/02/28 03:01:53;;;;;;;;;;;1.90;99.90;;;;;;5036403;28;19913;-81
2022/02/28 03:04:19;;;;;;;;;;;1.90;99.90;;;;;;5052980;28;19909;-81
2022/02/28 03:06:44;;;;;;;;;;;1.90;99.90;;;;;;5055882;28;19921;-81
2022/02/28 03:09:13;;;;;;;;;;;1.90;99.90;;;;;;5050661;28;19917;-81
2022/02/28 03:11:42;;;;;;;;;;;1.80;99.90;;;;;;5051694;28;20037;-81
2022/02/28 03:14:08;;;;;;;;;;;1.80;99.90;;;;;;5073594;28;19920;-80
2022/02/28 03:16:33;;;;;;;;;;;1.80;99.90;;;;;;5055398;28;19916;-81
2022/02/28 03:18:59;;;;;;;;;;;1.80;99.90;;;;;;5032919;28;20388;-80
2022/02/28 03:21:24;;;;;;;;;;;1.80;99.90;;;;;;5041637;28;19920;-81
2022/02/28 03:23:50;;;;;;;;;;;1.80;99.90;;;;;;5052552;28;19913;-82
2022/02/28 03:26:15;;;;;;;;;;;1.80;99.90;;;;;;5049146;28;19917;-82
2022/02/28 03:28:40;;;;;;;;;;;1.80;99.90;;;;;;5070901;28;20343;-81
2022/02/28 03:31:06;;;;;;;;;;;1.80;99.90;;;;;;5046765;28;19912;-82
2022/02/28 03:33:31;;;;;;;;;;;1.80;99.90;;;;;;5054582;28;19912;-81
2022/02/28 03:35:57;;;;;;;;;;;1.70;99.90;;;;;;5039136;28;19912;-81
2022/02/28 03:38:22;;;;;;;;;;;1.70;99.90;;;;;;5051386;28;19963;-81
2022/02/28 03:40:48;;;;;;;;;;;1.70;99.90;;;;;;5053983;28;20062;-81
2022/02/28 03:43:14;;;;;;;;;;;1.60;99.90;;;;;;5068277;28;19912;-81
2022/02/28 03:45:39;;;;;;;;;;;1.60;99.90;;;;;;5051791;28;20004;-81
2022/02/28 03:48:05;;;;;;;;;;;1.50;99.90;;;;;;5059237;28;19920;-81
2022/02/28 03:50:30;;;;;;;;;;;1.50;99.90;;;;;;5047914;28;20500;-81
2022/02/28 03:52:56;;;;;;;;;;;1.50;99.90;;;;;;5041834;28;19913;-81
2022/02/28 03:55:21;;;;;;;;;;;1.50;99.90;;;;;;5053099;28;19909;-81
2022/02/28 03:57:47;;;;;;;;;;;1.40;99.90;;;;;;5051526;28;19923;-81
2022/02/28 04:00:13;;;;;;;;;;;1.40;99.90;;;;;;5035579;28;19917;-81
2022/02/28 04:02:39;;;;;;;;;;;1.30;99.90;;;;;;5035273;28;20317;-81
2022/02/28 04:05:05;;;;;;;;;;;1.30;99.90;;;;;;5071147;28;19908;-81
2022/02/28 04:07:30;;;;;;;;;;;1.30;1.00;;;;;;5055419;28;19917;-82
2022/02/28 04:09:56;;;;;;;;;;;1.30;1.00;;;;;;5037910;28;20412;-81
2022/02/28 04:12:21;;;;;;;;;;;1.30;1.00;;;;;;5043628;28;19954;-81
2022/02/28 04:14:47;;;;;;;;;;;1.20;1.00;;;;;;5034052;28;19920;-81
2022/02/28 04:17:12;;;;;;;;;;;1.20;1.00;;;;;;5054740;28;19969;-81
2022/02/28 04:19:38;;;;;;;;;;;1.20;1.00;;;;;;5050805;28;19924;-81
2022/02/28 04:22:04;;;;;;;;;;;1.20;1.00;;;;;;5038895;28;19917;-81
2022/02/28 04:24:29;;;;;;;;;;;1.20;1.00;;;;;;5038280;28;19924;-81
2022/02/28 04:26:55;;;;;;;;;;;1.20;1.00;;;;;;5057139;28;19999;-81
2022/02/28 04:29:21;;;;;;;;;;;1.20;1.00;;;;;;5054613;28;19917;-82
2022/02/28 04:31:46;;;;;;;;;;;1.10;1.00;;;;;;5038197;28;20036;-81
2022/02/28 04:34:13;;;;;;;;;;;1.10;1.00;;;;;;5050747;28;19921;-81
2022/02/28 04:36:39;;;;;;;;;;;1.10;1.00;;;;;;5052306;28;20008;-81
2022/02/28 04:39:04;;;;;;;;;;;1.10;1.00;;;;;;5043064;28;19959;-81
2022/02/28 04:41:30;;;;;;;;;;;1.10;1.00;;;;;;5049701;28;19921;-81
2022/02/28 04:43:55;;;;;;;;;;;1.10;1.00;;;;;;5039282;28;19913;-81
2022/02/28 04:46:21;;;;;;;;;;;1.00;1.00;;;;;;5034556;28;19920;-82
2022/02/28 04:48:46;;;;;;;;;;;1.00;1.00;;;;;;5030070;28;20312;-81
2022/02/28 04:51:12;;;;;;;;;;;1.00;1.00;;;;;;5054538;28;19924;-81
2022/02/28 04:53:37;;;;;;;;;;;1.10;1.00;;;;;;5048894;28;20050;-81
2022/02/28 04:56:03;;;;;;;;;;;1.10;1.00;;;;;;5050009;28;19913;-81
2022/02/28 04:58:28;;;;;;;;;;;1.10;1.00;;;;;;5053252;28;19975;-81
2022/02/28 05:00:54;;;;;;;;;;;1.10;1.00;;;;;;5043689;28;19913;-82
2022/02/28 05:03:19;;;;;;;;;;;1.10;1.00;;;;;;5048847;28;19913;-82
2022/02/28 05:05:45;;;;;;;;;;;1.10;1.00;;;;;;5036748;28;19963;-81
2022/02/28 05:08:10;;;;;;;;;;;1.10;1.00;;;;;;5037499;28;20409;-81
2022/02/28 05:10:35;;;;;;;;;;;1.10;1.00;;;;;;5052692;28;19921;-81
2022/02/28 05:13:01;;;;;;;;;;;1.10;1.00;;;;;;5049335;28;19913;-81
2022/02/28 05:15:27;;;;;;;;;;;1.10;1.00;;;;;;5041514;28;19947;-81
2022/02/28 05:17:52;;;;;;;;;;;1.10;1.00;;;;;;5072112;28;19936;-82
2022/02/28 05:20:18;;;;;;;;;;;1.10;1.00;;;;;;5038171;28;19962;-81
2022/02/28 05:22:44;;;;;;;;;;;1.10;1.00;;;;;;5053352;28;19929;-81
2022/02/28 05:25:10;;;;;;;;;;;1.10;1.00;;;;;;5037791;28;19912;-82
2022/02/28 05:27:36;;;;;;;;;;;1.00;1.00;;;;;;5034806;28;19976;-82
2022/02/28 05:30:02;;;;;;;;;;;1.00;1.00;;;;;;5051763;28;19982;-82
2022/02/28 05:32:28;;;;;;;;;;;1.00;1.00;;;;;;5047477;28;19909;-82
2022/02/28 05:34:53;;;;;;;;;;;1.00;1.00;;;;;;5052835;28;19920;-82
2022/02/28 05:37:19;;;;;;;;;;;1.00;1.00;;;;;;5059278;28;19916;-82
2022/02/28 05:39:44;;;;;;;;;;;0.90;1.00;;;;;;5076182;28;19937;-82
2022/02/28 05:42:10;;;;;;;;;;;0.90;1.00;;;;;;5058905;28;19908;-82
2022/02/28 05:44:35;;;;;;;;;;;0.90;1.00;;;;;;5092040;28;20441;-82
2022/02/28 05:47:01;;;;;;;;;;;0.90;1.00;;;;;;5059311;28;19908;-82
2022/02/28 05:49:26;;;;;;;;;;;0.90;1.00;;;;;;5092704;28;19966;-82
2022/02/28 05:51:52;;;;;;;;;;;0.90;1.00;;;;;;5058275;28;20362;-82
2022/02/28 05:54:17;;;;;;;;;;;0.90;1.00;;;;;;5055154;28;19966;-82
2022/02/28 05:56:42;;;;;;;;;;;0.90;1.00;;;;;;5055862;28;19930;-81
2022/02/28 05:59:08;;;;;;;;;;;0.80;1.00;;;;;;5076734;28;19908;-82
2022/02/28 06:01:33;;;;;;;;;;;0.80;1.00;;;;;;5076492;28;19931;-81
2022/02/28 06:03:59;;;;;;;;;;;0.80;1.00;;;;;;5058225;28;19924;-81
2022/02/28 06:06:24;;;;;;;;;;;0.80;1.00;;;;;;5090877;28;19909;-81
2022/02/28 06:08:50;;;;;;;;;;;0.80;1.00;;;;;;5053793;28;20440;-82
2022/02/28 06:11:15;;;;;;;;;;;0.80;1.00;;;;;;5070884;28;19913;-81
2022/02/28 06:13:41;;;;;;;;;;;0.80;1.00;;;;;;5036605;28;19952;-82
2022/02/28 06:16:06;;;;;;;;;;;0.80;1.00;;;;;;5054815;28;20289;-81
2022/02/28 06:18:32;;;;;;;;;;;0.80;1.00;;;;;;5055038;28;19913;-81
2022/02/28 06:20:57;;;;;;;;;;;0.80;1.00;;;;;;5037319;28;19956;-81
2022/02/28 06:23:23;;;;;;;;;;;0.80;1.00;;;;;;5036729;28;19915;-81
2022/02/28 06:25:48;;;;;;;;;;;0.80;1.00;;;;;;5037185;28;19909;-82
2022/02/28 06:28:18;;;;;;;;;;;0.80;1.00;;;;;;5040631;28;19912;-81
2022/02/28 06:30:43;;;;;;;;;;;0.80;1.00;;;;;;5052747;28;20015;-81
2022/02/28 06:33:09;;;;;;;;;;;0.80;1.00;;;;;;5053235;28;19959;-81
2022/02/28 06:35:35;;;;;;;;;;;0.90;1.00;;;;;;5051741;28;19913;-82
2022/02/28 06:38:00;;;;;;;;;;;0.90;1.00;;;;;;5037692;28;19920;-81
2022/02/28 06:40:25;;;;;;;;;;;1.00;1.00;;;;;;5056514;28;19924;-82
2022/02/28 06:42:51;;;;;;;;;;;1.20;1.00;;;;;;5057375;28;19912;-81
2022/02/28 06:45:17;;;;;;;;;;;1.30;1.00;;;;;;5040478;28;19913;-81
2022/02/28 06:47:43;;;;;;;;;;;1.40;1.00;;;;;;5072726;28;19924;-82
2022/02/28 06:50:10;;;;;;;;;;;1.50;1.00;;;;;;5057750;28;20011;-82
2022/02/28 06:52:35;;;;;;;;;;;1.60;1.00;;;;;;5039972;28;20357;-82
2022/02/28 06:55:01;;;;;;;;;;;1.70;1.00;;;;;;5037892;28;19920;-82
2022/02/28 06:57:27;;;;;;;;;;;1.70;1.00;;;;;;5068506;28;19920;-82
2022/02/28 06:59:52;;;;;;;;;;;1.80;1.00;;;;;;5064438;28;19912;-82
2022/02/28 07:02:18;;;;;;;;;;;1.90;99.90;;;;;;5039077;28;19920;-82
2022/02/28 07:04:43;;;;;;;;;;;1.90;99.90;;;;;;5055933;28;19916;-82
2022/02/28 07:07:10;;;;;;;;;;;2.20;99.90;;;;;;5041614;28;20008;-82
2022/02/28 07:09:36;;;;;;;;;;;5.20;99.90;;;;;;5057974;28;19967;-82
2022/02/28 07:12:01;;;;;;;;;;;8.90;99.90;;;;;;5049905;28;19970;-83
2022/02/28 07:14:27;;;;;;;;;;;11.80;99.90;;;;;;5046061;28;19919;-83
2022/02/28 07:16:52;;;;;;;;;;;14.10;99.90;;;;;;5046115;28;19913;-83
2022/02/28 07:19:18;;;;;;;;;;;15.90;99.90;;;;;;5036256;28;19917;-84
2022/02/28 07:21:44;;;;;;;;;;;17.30;99.90;;;;;;5049996;28;19951;-83
2022/02/28 07:24:09;;;;;;;;;;;18.30;99.90;;;;;;5039905;28;19913;-84
2022/02/28 07:26:35;;;;;;;;;;;19.20;99.90;;;;;;5051543;28;20450;-84
2022/02/28 07:29:00;;;;;;;;;;;19.90;99.90;;;;;;5038923;28;19916;-83
2022/02/28 07:31:26;;;;;;;;;;;21.40;99.90;;;;;;5054297;28;19999;-84
2022/02/28 07:33:52;;;;;;;;;;;21.60;99.90;;;;;;5041900;28;19971;-83
2022/02/28 07:36:17;;;;;;;;;;;22.40;99.90;;;;;;5055891;28;19917;-83
2022/02/28 07:38:43;;;;;;;;;;;22.50;99.90;;;;;;5041891;28;19913;-83
2022/02/28 07:41:08;;;;;;;;;;;23.20;99.90;;;;;;5040614;28;19913;-83
2022/02/28 07:43:34;;;;;;;;;;;23.70;99.90;;;;;;5054500;28;19920;-83
2022/02/28 07:45:59;;;;;;;;;;;24.30;99.90;;;;;;5076989;28;19916;-83
2022/02/28 07:48:25;;;;;;;;;;;25.60;99.90;;;;;;5068253;28;19912;-83
2022/02/28 07:50:51;;;;;;;;;;;24.90;99.90;;;;;;5040858;28;19924;-83
2022/02/28 07:53:16;;;;;;;;;;;25.20;99.90;;;;;;5051930;28;19935;-83
2022/02/28 07:55:44;;;;;;;;;;;25.60;99.90;;;;;;5054878;28;20023;-83
2022/02/28 07:58:09;;;;;;;;;;;25.40;99.90;;;;;;5059174;28;19924;-83
2022/02/28 08:00:35;;;;;;;;;;;25.60;99.90;;;;;;5069838;28;19952;-83
2022/02/28 08:03:00;;;;;;;;;;;25.40;99.90;;;;;;5058882;28;19913;-83
2022/02/28 08:05:26;;;;;;;;;;;25.70;99.90;;;;;;5056120;28;19917;-82
2022/02/28 08:07:52;;;;;;;;;;;27.10;99.90;;;;;;5046451;28;19994;-83
2022/02/28 08:10:17;;;;;;;;;;;27.30;99.90;;;;;;5042737;28;19913;-83
2022/02/28 08:12:43;;;;;;;;;;;26.50;99.90;;;;;;5041934;28;20359;-83
2022/02/28 08:15:09;;;;;;;;;;;26.40;99.90;;;;;;5057829;28;19951;-83
2022/02/28 08:17:35;;;;;;;;;;;26.70;99.90;;;;;;5056516;28;19923;-83
2022/02/28 08:20:10;;;;;;;;;;;27.10;99.90;;;;;;5042795;28;19944;-82
2022/02/28 08:22:35;;;;;;;;;;;26.10;99.90;;;;;;5050730;28;19927;-83
2022/02/28 08:25:01;;;;;;;;;;;27.20;99.90;;;;;;5056819;28;19913;-83
2022/02/28 08:27:27;;;;;;;;;;;25.70;99.90;;;;;;5046908;28;20006;-83
2022/02/28 08:29:52;;;;;;;;;;;26.60;99.90;;;;;;5039665;28;19913;-83
2022/02/28 08:32:18;;;;;;;;;;;26.00;99.90;;;;;;5042237;28;19920;-84
2022/02/28 08:34:43;;;;;;;;;;;25.60;99.90;;;;;;5052252;28;19921;-83
2022/02/28 08:37:09;;;;;;;;;;;25.10;99.90;;;;;;5057167;28;19924;-83
2022/02/28 08:39:34;;;;;;;;;;;24.20;99.90;;;;;;5052546;28;19917;-83
2022/02/28 08:42:00;;;;;;;;;;;24.10;99.90;;;;;;5058002;28;19969;-83
2022/02/28 08:44:25;;;;;;;;;;;24.60;99.90;;;;;;5057578;28;19924;-83
2022/02/28 08:46:51;;;;;;;;;;;24.40;99.90;;;;;;5040605;28;19955;-83
2022/02/28 08:49:17;;;;;;;;;;;25.40;99.90;;;;;;5076605;28;19913;-82
2022/02/28 08:51:45;;;;;;;;;;;26.00;99.90;;;;;;5073489;28;19928;-82
2022/02/28 08:54:11;;;;;;;;;;;26.30;99.90;;;;;;5045844;28;20360;-82
2022/02/28 08:56:36;;;;;;;;;;;26.10;99.90;;;;;;5046848;28;19920;-82
2022/02/28 08:59:02;;;;;;;;;;;25.30;99.90;;;;;;5040238;28;20028;-82
2022/02/28 09:01:28;;;;;;;;;;;25.50;99.90;;;;;;5073774;28;19920;-83
2022/02/28 09:03:53;;;;;;;;;;;25.40;99.90;;;;;;5053958;28;19924;-81
2022/02/28 09:06:18;;;;;;;;;;;25.80;99.90;;;;;;5034514;28;19909;-80
2022/02/28 09:08:44;;;;;;;;;;;25.60;99.90;;;;;;5049204;28;19913;-79
2022/02/28 09:11:09;;;;;;;;;;;26.30;99.90;;;;;;5036117;28;19927;-79
2022/02/28 09:13:35;;;;;;;;;;;25.70;99.90;;;;;;5052124;28;19957;-79
2022/02/28 09:16:01;;;;;;;;;;;25.40;99.90;;;;;;5052430;28;19916;-83
2022/02/28 09:18:27;;;;;;;;;;;25.80;99.90;;;;;;5043664;28;20317;-83
2022/02/28 09:20:55;;;;;;;;;;;27.00;99.90;;;;;;5043823;28;19913;-82
2022/02/28 09:23:21;;;;;;;;;;;26.50;99.90;;;;;;5045154;28;19988;-82
2022/02/28 09:25:46;;;;;;;;;;;25.60;99.90;;;;;;5060668;28;19920;-83
2022/02/28 09:28:12;;;;;;;;;;;24.10;99.90;;;;;;5045610;28;19925;-82
2022/02/28 09:30:37;;;;;;;;;;;23.70;99.90;;;;;;5039193;28;19917;-82
2022/02/28 09:33:03;;;;;;;;;;;24.90;99.90;;;;;;5071830;28;19958;-82
2022/02/28 09:35:29;;;;;;;;;;;24.10;99.90;;;;;;5033912;28;19920;-82
2022/02/28 09:37:54;;;;;;;;;;;25.40;99.90;;;;;;5052310;28;20003;-83
2022/02/28 09:40:28;;;;;;;;;;;25.30;99.90;;;;;;5054740;28;19963;-81
2022/02/28 09:42:55;;;;;;;;;;;26.10;99.90;;;;;;5037550;28;20282;-81
2022/02/28 09:45:21;;;;;;;;;;;26.10;99.90;;;;;;5037354;28;19959;-81
2022/02/28 09:47:47;;;;;;;;;;;26.90;99.90;;;;;;5036454;28;19912;-81
2022/02/28 09:50:12;;;;;;;;;;;26.90;99.90;;;;;;5043184;28;19912;-81
2022/02/28 09:52:38;;;;;;;;;;;27.80;99.90;;;;;;5056105;28;19996;-81
2022/02/28 09:55:03;;;;;;;;;;;28.30;99.90;;;;;;5044229;28;19921;-81
2022/02/28 09:57:29;;;;;;;;;;;28.70;99.90;;;;;;5073261;28;19912;-82
2022/02/28 09:59:54;;;;;;;;;;;26.40;99.90;;;;;;5075429;28;19912;-81
2022/02/28 10:02:20;;;;;;;;;;;25.30;99.90;;;;;;5062016;28;19923;-81
2022/02/28 10:04:46;;;;;;;;;;;26.10;99.90;;;;;;5062652;28;19917;-82
2022/02/28 10:07:17;;;;;;;;;;;27.00;99.90;;;;;;5051659;28;19913;-81
2022/02/28 10:09:42;;;;;;;;;;;26.70;99.90;;;;;;5046677;28;19955;-81
2022/02/28 10:12:08;;;;;;;;;;;26.40;99.90;;;;;;5063812;28;19913;-81
2022/02/28 10:14:33;;;;;;;;;;;26.70;99.90;;;;;;5045728;28;20003;-81
2022/02/28 10:17:00;;;;;;;;;;;26.50;99.90;;;;;;5046979;28;19916;-81
2022/02/28 10:19:26;;;;;;;;;;;24.90;99.90;;;;;;5047360;28;19956;-81
2022/02/28 10:21:54;;;;;;;;;;;24.20;99.90;;;;;;5051356;28;19913;-81
2022/02/28 10:24:21;;;;;;;;;;;24.00;99.90;;;;;;5059610;28;19919;-80
2022/02/28 10:26:48;;;;;;;;;;;23.60;99.90;;;;;;5063325;28;19927;-81
2022/02/28 10:29:14;;;;;;;;;;;23.10;99.90;;;;;;5083107;28;19916;-81
2022/02/28 10:31:41;;;;;;;;;;;24.40;99.90;;;;;;5063439;28;20282;-81
2022/02/28 10:34:17;;;;;;;;;;;24.60;99.90;;;;;;5046583;28;19912;-81
2022/02/28 10:36:46;;;;;;;;;;;23.80;99.90;;;;;;5059142;28;19940;-81
2022/02/28 10:39:12;;;;;;;;;;;23.20;99.90;;;;;;5045894;28;19917;-81
2022/02/28 10:41:39;;;;;;;;;;;23.80;99.90;;;;;;5060458;28;19920;-82
2022/02/28 10:44:07;;;;;;;;;;;24.50;99.90;;;;;;5053452;28;19917;-82
2022/02/28 10:46:36;;;;;;;;;;;25.70;99.90;;;;;;5057668;28;19940;-83
2022/02/28 10:49:07;;;;;;;;;;;25.10;99.90;;;;;;5062115;28;19913;-82
2022/02/28 10:51:44;;;;;;;;;;;24.70;99.90;;;;;;5062130;28;19924;-82
2022/02/28 10:54:11;;;;;;;;;;;25.10;99.90;;;;;;5052138;28;19969;-82
2022/02/28 10:57:06;;;;;;;;;;;24.40;99.90;;;;;;5059688;28;19917;-82
2022/02/28 10:59:41;;;;;;;;;;;25.00;99.90;;;;;;5049836;28;19917;-82
2022/02/28 11:02:07;;;;;;;;;;;24.60;99.90;;;;;;5047049;28;20285;-83
2022/02/28 11:04:42;;;;;;;;;;;24.20;99.90;;;;;;5070689;28;19913;-82
2022/02/28 11:07:09;;;;;;;;;;;24.80;99.90;;;;;;5077377;28;19913;-83
2022/02/28 11:09:38;;;;;;;;;;;23.80;99.90;;;;;;5041876;28;19917;-82
2022/02/28 11:12:16;;;;;;;;;;;23.30;99.90;;;;;;5058020;28;19919;-82
2022/02/28 11:14:41;;;;;;;;;;;23.90;99.90;;;;;;5074341;28;19913;-82
2022/02/28 11:17:07;;;;;;;;;;;23.00;99.90;;;;;;5059243;28;19912;-83
2022/02/28 11:19:32;;;;;;;;;;;22.40;99.90;;;;;;5058863;28;19948;-82
2022/02/28 11:21:58;;;;;;;;;;;22.90;99.90;;;;;;5077664;28;19928;-83
2022/02/28 11:24:24;;;;;;;;;;;23.70;99.90;;;;;;5044814;28;20066;-83
2022/02/28 11:26:49;;;;;;;;;;;23.80;99.90;;;;;;5055475;28;20317;-81
2022/02/28 11:29:14;;;;;;;;;;;24.80;99.90;;;;;;5050595;28;19917;-81
2022/02/28 11:31:40;;;;;;;;;;;23.50;99.90;;;;;;5069205;28;19976;-80
2022/02/28 11:34:09;;;;;;;;;;;22.80;99.90;;;;;;5051889;28;19966;-81
2022/02/28 11:36:47;;;;;;;;;;;22.40;99.90;;;;;;5050652;28;19920;-80
2022/02/28 11:39:13;;;;;;;;;;;22.40;99.90;;;;;;5059482;28;19925;-81
2022/02/28 11:41:39;;;;;;;;;;;22.10;99.90;;;;;;5057021;28;19936;-81
2022/02/28 11:44:06;;;;;;;;;;;22.20;99.90;;;;;;5030969;28;19913;-80
2022/02/28 11:46:31;;;;;;;;;;;21.60;99.90;;;;;;5048365;28;20003;-80
2022/02/28 11:48:58;;;;;;;;;;;20.70;99.90;;;;;;5058324;28;19948;-80
2022/02/28 11:51:29;;;;;;;;;;;20.10;99.90;;;;;;5052465;28;19969;-81
2022/02/28 11:53:56;;;;;;;;;;;20.10;99.90;;;;;;5046017;28;20342;-81
2022/02/28 11:56:24;;;;;;;;;;;20.20;99.90;;;;;;5078429;28;19913;-81
2022/02/28 11:58:51;;;;;;;;;;;21.00;99.90;;;;;;5072492;28;20056;-81
2022/02/28 12:01:17;;;;;;;;;;;19.90;99.90;;;;;;5064478;28;20074;-81
2022/02/28 12:03:50;;;;;;;;;;;20.50;99.90;;;;;;5029733;28;19913;-81
2022/02/28 12:06:34;;;;;;;;;;;20.60;99.90;;;;;;5048152;28;19917;-83
2022/02/28 12:08:59;;;;;;;;;;;20.80;99.90;;;;;;5072908;28;19958;-83
2022/02/28 12:11:29;;;;;;;;;;;21.60;99.90;;;;;;5048304;28;19920;-82
2022/02/28 12:14:03;;;;;;;;;;;21.20;99.90;;;;;;5036653;28;20196;-83
2022/02/28 12:19:26;;;;;;;;;;;20.70;99.90;;;;;;5049838;28;19924;-82
2022/02/28 12:21:59;;;;;;;;;;;21.40;99.90;;;;;;5049825;28;19958;-83
2022/02/28 12:24:43;;;;;;;;;;;21.80;99.90;;;;;;5054089;28;19916;-83
2022/02/28 12:27:14;;;;;;;;;;;22.00;99.90;;;;;;5048370;28;19917;-82
2022/02/28 12:29:40;;;;;;;;;;;21.80;99.90;;;;;;5030115;28;19917;-82
2022/02/28 12:32:06;;;;;;;;;;;21.40;99.90;;;;;;5036398;28;19924;-82
2022/02/28 12:34:35;;;;;;;;;;;21.60;99.90;;;;;;5033841;28;21819;-81
2022/02/28 12:37:01;;;;;;;;;;;21.80;99.90;;;;;;5034288;28;19913;-82
2022/02/28 12:39:26;;;;;;;;;;;21.80;99.90;;;;;;5034604;28;19970;-82
2022/02/28 12:41:56;;;;;;;;;;;22.60;99.90;;;;;;5048016;28;19920;-82
2022/02/28 12:44:22;;;;;;;;;;;23.00;99.90;;;;;;5041387;28;20004;-81
2022/02/28 12:46:49;;;;;;;;;;;21.70;99.90;;;;;;5052318;28;19947;-81
2022/02/28 12:49:17;;;;;;;;;;;21.00;99.90;;;;;;5057846;28;20280;-81
2022/02/28 12:51:42;;;;;;;;;;;20.50;99.90;;;;;;5047688;28;20036;-81
2022/02/28 12:54:10;;;;;;;;;;;20.60;99.90;;;;;;5037827;28;19913;-82
2022/02/28 12:56:43;;;;;;;;;;;20.60;99.90;;;;;;5044291;28;19924;-81
2022/02/28 12:59:09;;;;;;;;;;;20.80;99.90;;;;;;5056083;28;19966;-81
2022/02/28 13:01:34;;;;;;;;;;;20.80;99.90;;;;;;5049177;28;20020;-82
2022/02/28 13:04:01;;;;;;;;;;;21.00;99.90;;;;;;5030635;28;19999;-81
2022/02/28 13:06:28;;;;;;;;;;;20.70;99.90;;;;;;5056180;28;19920;-81
2022/02/28 13:08:58;;;;;;;;;;;21.00;99.90;;;;;;5055926;28;19982;-82
2022/02/28 13:11:23;;;;;;;;;;;20.80;99.90;;;;;;5061960;28;19912;-81
2022/02/28 13:13:53;;;;;;;;;;;21.10;99.90;;;;;;5075296;28;19916;-81
2022/02/28 13:16:19;;;;;;;;;;;20.50;99.90;;;;;;5074552;28;19917;-81
2022/02/28 13:18:44;;;;;;;;;;;19.90;99.90;;;;;;5058429;28;20009;-81
2022/02/28 13:21:10;;;;;;;;;;;19.40;99.90;;;;;;5042566;28;20062;-81
2022/02/28 13:23:37;;;;;;;;;;;19.70;99.90;;;;;;5036897;28;19988;-81
2022/02/28 13:26:03;;;;;;;;;;;19.30;99.90;;;;;;5070206;28;19962;-82
2022/02/28 13:28:28;;;;;;;;;;;19.60;99.90;;;;;;5055193;28;19966;-82
2022/02/28 13:30:55;;;;;;;;;;;19.30;99.90;;;;;;5070953;28;20381;-80
2022/02/28 13:33:20;;;;;;;;;;;18.90;99.90;;;;;;5054976;28;19909;-80
2022/02/28 13:35:46;;;;;;;;;;;18.70;99.90;;;;;;5056302;28;19912;-80
2022/02/28 13:38:15;;;;;;;;;;;18.00;99.90;;;;;;5054922;28;19920;-80
2022/02/28 13:40:41;;;;;;;;;;;18.50;99.90;;;;;;5066314;28;19913;-82
2022/02/28 13:43:09;;;;;;;;;;;19.00;99.90;;;;;;5056606;28;20440;-81
2022/02/28 13:45:37;;;;;;;;;;;18.60;99.90;;;;;;5073922;28;20330;-81
2022/02/28 13:48:13;;;;;;;;;;;18.70;99.90;;;;;;5073142;28;19920;-81
2022/02/28 13:50:42;;;;;;;;;;;18.50;99.90;;;;;;5054779;28;20007;-80
2022/02/28 13:53:08;;;;;;;;;;;18.90;99.90;;;;;;5055487;28;19963;-80
2022/02/28 13:55:33;;;;;;;;;;;18.60;99.90;;;;;;5069989;28;19909;-81
2022/02/28 13:57:59;;;;;;;;;;;18.70;99.90;;;;;;5055405;28;19927;-81
2022/02/28 14:00:26;;;;;;;;;;;18.00;99.90;;;;;;5074950;28;19912;-80
2022/02/28 14:03:02;;;;;;;;;;;17.40;99.90;;;;;;5056365;28;19920;-81
2022/02/28 14:05:49;;;;;;;;;;;17.10;99.90;;;;;;5069107;28;19935;-80
2022/02/28 14:08:16;;;;;;;;;;;16.90;99.90;;;;;;5038305;28;19921;-80
2022/02/28 14:10:42;;;;;;;;;;;16.80;99.90;;;;;;5036207;28;19974;-81
2022/02/28 14:13:25;;;;;;;;;;;17.00;99.90;;;;;;5037332;28;19919;-81
2022/02/28 14:15:54;;;;;;;;;;;17.20;99.90;;;;;;5033351;28;19963;-80
2022/02/28 14:18:20;;;;;;;;;;;16.70;99.90;;;;;;5024562;28;19916;-81
2022/02/28 14:20:46;;;;;;;;;;;16.40;99.90;;;;;;5073184;28;19935;-81
2022/02/28 14:23:13;;;;;;;;;;;16.50;99.90;;;;;;5056216;28;20426;-80
2022/02/28 14:25:40;;;;;;;;;;;16.40;99.90;;;;;;5063776;28;19919;-81